createdAt,value
2022-10-19T00:00:18.287Z,92.945833
2022-10-19T00:05:16.442Z,92.920833
2022-10-19T00:10:16.404Z,93.000000
2022-10-19T00:15:16.372Z,93.136000
2022-10-19T00:20:16.481Z,92.766667
2022-10-19T00:25:16.550Z,92.936000
2022-10-19T00:30:16.377Z,93.000000
2022-10-19T00:35:16.400Z,92.866667
2022-10-19T00:40:16.416Z,92.758333
2022-10-19T00:45:16.482Z,92.683333
2022-10-19T00:50:16.322Z,92.645833
2022-10-19T00:55:16.541Z,92.891667
2022-10-19T01:00:16.434Z,92.812500
2022-10-19T01:05:16.540Z,92.860000
2022-10-19T01:10:16.703Z,92.684000
2022-10-19T01:15:16.541Z,92.964000
2022-10-19T01:20:16.486Z,92.756000
2022-10-19T01:25:16.474Z,93.032000
2022-10-19T01:30:16.803Z,92.916000
2022-10-19T01:35:17.128Z,92.860000
2022-10-19T01:40:16.546Z,93.064000
2022-10-19T01:45:16.499Z,92.908000
2022-10-19T01:50:17.299Z,93.100000
2022-10-19T01:55:16.688Z,93.000000
2022-10-19T02:00:16.780Z,93.108000
2022-10-19T02:05:16.579Z,93.228000
2022-10-19T02:10:16.480Z,93.164000
2022-10-19T02:15:18.908Z,93.315385
2022-10-19T02:20:18.967Z,93.079167
2022-10-19T02:25:18.815Z,93.437500
2022-10-19T02:30:16.476Z,93.516667
2022-10-19T02:35:16.416Z,93.472000
2022-10-19T02:40:19.027Z,93.400000
2022-10-19T02:45:18.877Z,93.504167
2022-10-19T02:50:18.813Z,93.612500
2022-10-19T02:55:18.955Z,93.600000
2022-10-19T03:00:19.033Z,93.512500
2022-10-19T03:05:18.844Z,93.450000
2022-10-19T03:10:19.043Z,93.483333
2022-10-19T03:15:18.932Z,93.550000
2022-10-19T03:20:19.174Z,93.604167
2022-10-19T03:25:18.839Z,93.658333
2022-10-19T03:30:19.123Z,93.737500
2022-10-19T03:35:19.121Z,93.783333
2022-10-19T03:40:19.351Z,93.700000
2022-10-19T03:45:18.784Z,93.612500
2022-10-19T03:50:18.820Z,93.666667
2022-10-19T03:55:18.841Z,93.783333
2022-10-19T04:00:19.037Z,93.866667
2022-10-19T04:05:18.773Z,93.845833
2022-10-19T04:10:18.800Z,93.800000
2022-10-19T04:15:18.998Z,93.733333
2022-10-19T04:20:19.371Z,93.775000
2022-10-19T04:25:18.825Z,93.979167
2022-10-19T04:30:19.117Z,93.883333
2022-10-19T04:35:36.440Z,93.833333
2022-10-19T04:40:19.067Z,93.904000
2022-10-19T04:45:19.070Z,94.000000
2022-10-19T04:50:19.066Z,93.887500
2022-10-19T04:55:18.742Z,93.883333
2022-10-19T05:00:19.037Z,93.804167
2022-10-19T05:05:18.829Z,93.816667
2022-10-19T05:10:18.836Z,93.870833
2022-10-19T05:15:18.788Z,93.800000
2022-10-19T05:20:19.111Z,93.800000
2022-10-19T05:25:18.771Z,93.800000
2022-10-19T05:30:19.107Z,93.754167
2022-10-19T05:35:22.334Z,93.700000
2022-10-19T05:40:19.571Z,93.716667
2022-10-19T05:45:18.904Z,93.700000
2022-10-19T05:50:18.973Z,93.700000
2022-10-19T05:55:18.769Z,93.700000
2022-10-19T06:00:18.915Z,93.670833
2022-10-19T06:05:18.760Z,93.620833
2022-10-19T06:10:18.751Z,93.500000
2022-10-19T06:15:18.985Z,93.441667
2022-10-19T06:20:19.102Z,93.362500
2022-10-19T06:25:20.330Z,93.300000
2022-10-19T06:30:19.077Z,93.183333
2022-10-19T06:35:18.863Z,93.145833
2022-10-19T06:40:18.931Z,93.058333
2022-10-19T06:45:18.817Z,92.954167
2022-10-19T06:50:18.759Z,93.033333
2022-10-19T06:55:18.742Z,92.745833
2022-10-19T07:00:18.823Z,92.754167
2022-10-19T07:05:16.444Z,92.387500
2022-10-19T07:10:16.647Z,92.116000
2022-10-19T07:15:16.359Z,91.888000
2022-10-19T07:20:16.452Z,91.448000
2022-10-19T07:25:16.378Z,90.816000
2022-10-19T07:30:16.475Z,90.304000
2022-10-19T07:35:16.439Z,89.836000
2022-10-19T07:40:16.355Z,89.264000
2022-10-19T07:45:16.352Z,88.700000
2022-10-19T07:50:16.366Z,88.416000
2022-10-19T07:55:16.385Z,88.608000
2022-10-19T08:00:16.496Z,88.404000
2022-10-19T08:05:16.927Z,88.068000
2022-10-19T08:10:17.076Z,87.888000
2022-10-19T08:15:16.352Z,87.796000
2022-10-19T08:20:16.587Z,87.636000
2022-10-19T08:25:16.404Z,87.368000
2022-10-19T08:30:16.356Z,87.084000
2022-10-19T08:35:16.361Z,87.584000
2022-10-19T08:40:18.803Z,87.203846
2022-10-19T08:45:16.322Z,86.500000
2022-10-19T08:50:16.766Z,86.056000
2022-10-19T08:55:20.647Z,85.580769
2022-10-19T09:00:18.993Z,85.995833
2022-10-19T09:05:19.159Z,84.366667
2022-10-19T09:10:18.668Z,83.362500
2022-10-19T09:15:18.721Z,82.966667
2022-10-19T09:20:19.319Z,82.750000
2022-10-19T09:25:18.677Z,81.770833
2022-10-19T09:30:18.769Z,81.200000
2022-10-19T09:35:18.767Z,79.495833
2022-10-19T09:40:19.472Z,79.725000
2022-10-19T09:45:18.843Z,77.600000
2022-10-19T09:50:18.747Z,78.887500
2022-10-19T09:55:18.698Z,79.450000
2022-10-19T10:00:18.878Z,78.770833
2022-10-19T10:05:19.011Z,79.104167
2022-10-19T10:10:18.749Z,79.145833
2022-10-19T10:15:18.751Z,77.625000
2022-10-19T10:20:18.858Z,78.945833
2022-10-19T10:25:18.753Z,76.800000
2022-10-19T10:30:18.773Z,76.900000
2022-10-19T10:35:18.778Z,75.762500
2022-10-19T10:40:19.908Z,75.745833
2022-10-19T10:45:16.525Z,75.576000
2022-10-19T10:50:18.766Z,76.207692
2022-10-19T10:55:18.742Z,76.983333
2022-10-19T11:00:19.011Z,78.387500
2022-10-19T11:05:18.967Z,77.266667
2022-10-19T11:10:18.912Z,76.779167
2022-10-19T11:15:19.393Z,76.791667
2022-10-19T11:20:19.197Z,75.828000
2022-10-19T11:25:18.954Z,75.704167
2022-10-19T11:30:18.721Z,75.691667
2022-10-19T11:35:18.643Z,74.966667
2022-10-19T11:40:22.169Z,75.558333
2022-10-19T11:45:16.418Z,75.783333
2022-10-19T11:50:16.295Z,76.048000
2022-10-19T11:55:16.227Z,75.116000
2022-10-19T12:00:37.584Z,75.080000
2022-10-19T12:05:16.257Z,75.392000
2022-10-19T12:10:18.692Z,74.665385
2022-10-19T12:15:18.714Z,75.200000
2022-10-19T12:20:19.851Z,73.916667
2022-10-19T12:25:18.754Z,74.470833
2022-10-19T12:30:18.635Z,74.333333
2022-10-19T12:35:23.811Z,73.729167
2022-10-19T12:40:18.983Z,74.212500
2022-10-19T12:45:18.652Z,73.766667
2022-10-19T12:50:23.899Z,72.054167
2022-10-19T12:55:18.632Z,72.575000
2022-10-19T13:00:18.858Z,71.320833
2022-10-19T13:05:19.019Z,74.200000
2022-10-19T13:10:18.962Z,75.570833
2022-10-19T13:15:18.679Z,75.100000
2022-10-19T13:20:16.267Z,75.666667
2022-10-19T13:25:16.219Z,74.952000
2022-10-19T13:30:16.289Z,74.156000
2022-10-19T13:35:18.617Z,74.119231
2022-10-19T13:40:23.601Z,74.658333
2022-10-19T13:45:18.689Z,73.741667
2022-10-19T13:50:18.786Z,72.300000
2022-10-19T13:55:18.746Z,73.216667
2022-10-19T14:00:18.741Z,73.108333
2022-10-19T14:05:18.694Z,72.358333
2022-10-19T14:10:18.667Z,71.766667
2022-10-19T14:15:18.680Z,71.345833
2022-10-19T14:20:18.625Z,71.604167
2022-10-19T14:25:18.644Z,72.637500
2022-10-19T14:30:18.956Z,71.466667
2022-10-19T14:35:16.170Z,72.725000
2022-10-19T14:40:16.422Z,71.920000
2022-10-19T14:45:16.196Z,71.520000
2022-10-19T14:50:18.560Z,72.007692
2022-10-19T14:55:18.839Z,71.491667
2022-10-19T15:00:18.668Z,73.283333
2022-10-19T15:05:16.383Z,73.087500
2022-10-19T15:10:16.217Z,73.496000
2022-10-19T15:15:16.244Z,73.548000
2022-10-19T15:20:16.357Z,72.704000
2022-10-19T15:25:18.701Z,71.661538
2022-10-19T15:30:18.857Z,72.254167
2022-10-19T15:35:18.581Z,72.883333
2022-10-19T15:40:18.598Z,74.041667
2022-10-19T15:45:18.624Z,74.125000
2022-10-19T15:50:18.714Z,75.470833
2022-10-19T15:55:18.610Z,75.616667
2022-10-19T16:00:18.714Z,75.204167
2022-10-19T16:05:18.585Z,77.166667
2022-10-19T16:10:18.671Z,75.883333
2022-10-19T16:15:18.527Z,77.891667
2022-10-19T16:20:16.247Z,79.179167
2022-10-19T16:25:16.218Z,78.096000
2022-10-19T16:30:16.738Z,78.408000
2022-10-19T16:35:18.548Z,77.884615
2022-10-19T16:40:18.709Z,79.500000
2022-10-19T16:45:19.052Z,81.033333
2022-10-19T16:50:18.946Z,81.991667
2022-10-19T16:55:18.957Z,82.033333
2022-10-19T17:00:18.821Z,82.220833
2022-10-19T17:05:18.924Z,82.600000
2022-10-19T17:10:18.567Z,83.054167
2022-10-19T17:15:41.400Z,83.629167
2022-10-19T17:20:18.717Z,84.183333
2022-10-19T17:25:18.485Z,84.383333
2022-10-19T17:30:18.680Z,84.795833
2022-10-19T17:35:18.567Z,85.541667
2022-10-19T17:40:18.521Z,86.054167
2022-10-19T17:45:18.496Z,86.645833
2022-10-19T17:50:18.847Z,87.079167
2022-10-19T17:55:18.685Z,87.500000
2022-10-19T18:00:18.608Z,87.929167
2022-10-19T18:05:18.531Z,88.270833
2022-10-19T18:10:18.531Z,87.875000
2022-10-19T18:15:18.511Z,88.470833
2022-10-19T18:20:18.534Z,89.008333
2022-10-19T18:25:21.654Z,88.950000
2022-10-19T18:30:18.631Z,89.569231
2022-10-19T18:35:18.853Z,89.487500
2022-10-19T18:40:18.478Z,89.879167
2022-10-19T18:45:18.485Z,89.650000
2022-10-19T18:50:18.524Z,89.720833
2022-10-19T18:55:18.499Z,90.162500
2022-10-19T19:00:18.466Z,90.566667
2022-10-19T19:05:18.474Z,90.220833
2022-10-19T19:10:18.581Z,90.595833
2022-10-19T19:15:18.646Z,90.787500
2022-10-19T19:20:18.555Z,90.433333
2022-10-19T19:25:18.785Z,90.950000
2022-10-19T19:30:18.651Z,91.316667
2022-10-19T19:35:18.653Z,91.150000
2022-10-19T19:40:18.467Z,90.829167
2022-10-19T19:45:18.448Z,91.312500
2022-10-19T19:50:18.698Z,90.666667
2022-10-19T19:55:18.571Z,91.283333
2022-10-19T20:00:18.470Z,91.620833
2022-10-19T20:05:16.088Z,91.416667
2022-10-19T20:10:18.523Z,91.650000
2022-10-19T20:15:18.408Z,91.254167
2022-10-19T20:20:18.483Z,91.741667
2022-10-19T20:25:18.466Z,91.408333
2022-10-19T20:30:18.660Z,91.562500
2022-10-19T20:35:18.437Z,91.616667
2022-10-19T20:40:18.598Z,91.533333
2022-10-19T20:45:18.580Z,91.616667
2022-10-19T20:50:21.670Z,91.816667
2022-10-19T20:55:18.593Z,91.779167
2022-10-19T21:00:18.819Z,91.783333
2022-10-19T21:05:18.538Z,91.825000
2022-10-19T21:10:18.546Z,91.700000
2022-10-19T21:15:18.514Z,92.020833
2022-10-19T21:20:18.526Z,92.200000
2022-10-19T21:25:18.461Z,92.133333
2022-10-19T21:30:18.409Z,92.133333
2022-10-19T21:35:18.429Z,92.058333
2022-10-19T21:40:18.408Z,91.933333
2022-10-19T21:45:29.750Z,92.112500
2022-10-19T21:50:18.522Z,92.483333
2022-10-19T21:55:18.539Z,92.425000
2022-10-19T22:00:17.239Z,91.887500
2022-10-19T22:05:16.276Z,92.133333
2022-10-19T22:10:16.442Z,92.488000
2022-10-19T22:15:16.363Z,92.432000
2022-10-19T22:20:16.130Z,91.912000
2022-10-19T22:25:16.171Z,92.360000
2022-10-19T22:30:16.132Z,92.468000
2022-10-19T22:35:16.075Z,92.456000
2022-10-19T22:40:16.335Z,92.384000
2022-10-19T22:45:16.043Z,92.600000
2022-10-19T22:50:16.034Z,92.348000
2022-10-19T22:55:16.322Z,92.332000
2022-10-19T23:00:16.019Z,92.432000
2022-10-19T23:05:16.130Z,92.760000
2022-10-19T23:10:18.421Z,92.723077
2022-10-19T23:15:18.426Z,92.279167
2022-10-19T23:20:18.409Z,92.479167
2022-10-19T23:25:18.670Z,92.616667
2022-10-19T23:30:18.491Z,92.500000
2022-10-19T23:35:18.468Z,92.350000
2022-10-19T23:40:18.557Z,92.154167
2022-10-19T23:45:18.433Z,92.616667
2022-10-19T23:50:18.485Z,92.583333
2022-10-19T23:55:18.512Z,92.700000
